Barcelona, Spain

12:15 AM CET on February 10, 2016 (GMT +0100)
El Prat | | Change Station
CLOSE
Current Station
Airport
Location: Barcelona,
Elevation: 10 ft
Nearby Weather Stations

Elev 10 ft 41.29 °N, 2.07 °E | Updated 15 minutes ago

Partly Cloudy
Partly Cloudy
61 °F
Feels Like 61 °F
N
22
Wind Variable Wind from West

Today
High -- | Low -- °F
--% Chance of Precip.
Yesterday
High -- | Low -- °F
Precip. -- in
Pressure 29.77 in
Visibility 6.2 miles
Clouds Few 3000 ft
Dew Point 39 °F
Humidity 45%
Rainfall 0.00 in
Snow Depth Not available.
7:53 AM 6:18 PM
New Moon, 2% visible
METAR LEBL 092300Z 26019KT 9999 FEW030 16/04 Q1008 NOSIG
Pressure 29.77 in
Visibility 6.2 miles
Clouds Few 3000 ft
Dew Point 39 °F
Humidity 45%
Rainfall 0.00 in
Snow Depth Not available.
7:53 AM 6:18 PM
New Moon, 2% visible
METAR LEBL 092300Z 26019KT 9999 FEW030 16/04 Q1008 NOSIG

10-Day Weather Forecast

Almanac

Astronomy

Feb. 10, 2016 Rise Set
Actual Time
Civil Twilight
Nautical Twilight
Astronomical Twilight
Moon
Length of Visible Light
Length of Day
Tomorrow will be .
, % of the Moon is Illuminated

Today's Extremes

Country Highs Country Lows

Community

WunderPhotos

Upload Photos

1,891,728 photos uploaded!

WunderBlog® & News

Nearby

Air Quality

  Air Quality AQ Index Pollutant
Not available.

Snow Depth

Station Depth Elevation

Earthquake Activity

City Distance Mag. Time & Date
Minimum magnitude displayed is 2.5.

Coastal Water Temperatures

Place Temperature

Stations

Nearby Weather Stations

Station Location Temp. Windchill Dew Point Humidity Wind Precip. Elev Updated Type